< < Back
Terminal Aerodrome Forecast


Current Version              Previous Versions:   1  2  3  4  5  6  7  8  9  

Terminal Aerodrome Forecast

489
FTUS42 KGSP 291128
TAFAND
TAF
KAND 291128Z 2912/3012 VRB03KT P6SM SKC
     FM291700 25006KT P6SM SCT250
     FM300100 VRB03KT P6SM FEW150 BKN250=



Latest METAR

613
SAUS70 KWBC 301300
MTRAND
METAR KAND 301256Z AUTO 07009KT 10SM CLR 22/13 A3001 RMK AO2 SLP153
T02170128


USA.gov is the U.S. government's official web portal to all federal, state and local government web resources and services.